Time;durP1;ratioP1;P1;durP2;ratioP2;P2;SDS_P1;SDS_P2;PMS_P1;PMS_P2;Temp;Humidity;BMP_temperature;BMP_pressure;BME280_temperature;BME280_humidity;BME280_pressure;Samples;Min_cycle;Max_cycle;Signal;HPM_P1;HPM_P2
2022/08/28 00:02:03;;;;;;;5.50;2.42;;;;;;;16.22;71.24;101597.25;10434002;28;20040;-77
2022/08/28 00:07:04;;;;;;;6.43;3.63;;;;;;;16.11;71.27;101597.75;10388576;28;20171;-77
2022/08/28 00:12:05;;;;;;;5.53;2.75;;;;;;;16.00;71.53;101600.03;10408019;28;20535;-78
2022/08/28 00:17:05;;;;;;;6.82;2.53;;;;;;;15.99;70.80;101603.50;10405344;28;20069;-77
2022/08/28 00:22:06;;;;;;;8.23;3.63;;;;;;;16.06;69.71;101609.88;10418434;28;20113;-77
2022/08/28 00:32:26;;;;;;;8.48;3.42;;;;;;;15.87;70.56;101613.59;10467769;28;20041;-77
2022/08/28 00:37:27;;;;;;;14.57;3.33;;;;;;;15.78;70.96;101613.22;10446571;28;20125;-77
2022/08/28 00:42:27;;;;;;;8.55;4.15;;;;;;;15.75;71.06;101613.09;10476577;28;20057;-77
2022/08/28 00:47:29;;;;;;;13.77;4.28;;;;;;;15.77;71.33;101614.94;10487515;28;20036;-77
2022/08/28 00:52:29;;;;;;;9.77;4.20;;;;;;;15.77;71.49;101616.69;10464967;28;20033;-77
2022/08/28 00:57:35;;;;;;;10.32;3.85;;;;;;;15.63;72.44;101624.97;10461574;28;20485;-77
2022/08/28 01:02:35;;;;;;;12.15;4.43;;;;;;;15.73;72.19;101618.31;10445274;28;20033;-78
2022/08/28 01:07:36;;;;;;;11.48;4.13;;;;;;;15.59;72.56;101625.69;10452425;28;20073;-77
2022/08/28 01:12:37;;;;;;;11.35;3.88;;;;;;;15.65;72.26;101628.56;10465153;28;20033;-77
2022/08/28 01:17:38;;;;;;;12.55;3.95;;;;;;;15.64;72.93;101628.50;10460619;28;20029;-77
2022/08/28 01:22:41;;;;;;;13.93;7.80;;;;;;;15.58;72.51;101629.19;10463418;28;20123;-77
2022/08/28 01:27:41;;;;;;;14.32;4.43;;;;;;;15.43;73.65;101637.38;10481853;28;20032;-77
2022/08/28 01:32:44;;;;;;;11.65;4.13;;;;;;;15.34;74.17;101629.09;10464619;28;20043;-77
2022/08/28 01:37:45;;;;;;;13.27;6.18;;;;;;;15.33;74.31;101637.84;10458804;28;20033;-77
2022/08/28 01:42:45;;;;;;;21.02;5.35;;;;;;;15.19;75.07;101643.44;10478541;28;20036;-77
2022/08/28 01:47:46;;;;;;;9.63;4.53;;;;;;;15.12;75.05;101644.03;10467427;28;20111;-77
2022/08/28 01:52:46;;;;;;;10.80;5.25;;;;;;;15.01;75.66;101647.94;10444363;28;20045;-77
2022/08/28 01:57:49;;;;;;;12.15;5.88;;;;;;;14.98;75.82;101657.53;10442639;28;20057;-77
2022/08/28 02:02:49;;;;;;;9.27;4.10;;;;;;;14.78;76.91;101658.41;10478570;28;20051;-77
2022/08/28 02:07:51;;;;;;;15.38;5.68;;;;;;;14.64;77.60;101657.81;10482938;28;20132;-77
2022/08/28 02:12:52;;;;;;;10.18;5.50;;;;;;;14.46;78.27;101658.78;10461581;28;20033;-77
2022/08/28 02:17:52;;;;;;;13.50;5.07;;;;;;;14.41;79.21;101665.59;10425304;28;20401;-77
2022/08/28 02:22:54;;;;;;;12.43;4.75;;;;;;;14.45;79.23;101671.88;10460994;28;20047;-78
2022/08/28 02:27:55;;;;;;;11.23;5.63;;;;;;;14.39;79.17;101676.03;10466758;28;20044;-78
2022/08/28 02:32:55;;;;;;;16.63;6.32;;;;;;;14.34;79.19;101681.94;10462131;28;20508;-77
2022/08/28 02:37:56;;;;;;;15.68;4.90;;;;;;;14.33;79.41;101686.28;10449883;28;20598;-77
2022/08/28 02:42:56;;;;;;;9.00;4.45;;;;;;;14.26;79.45;101675.44;10461520;28;20071;-78
2022/08/28 02:47:57;;;;;;;10.20;4.45;;;;;;;14.18;79.70;101678.63;10442551;28;20198;-77
2022/08/28 02:52:57;;;;;;;12.95;4.63;;;;;;;14.12;80.07;101678.34;10459960;28;20032;-78
2022/08/28 02:57:58;;;;;;;17.08;6.10;;;;;;;14.01;80.84;101677.81;10479788;28;20043;-77
2022/08/28 03:02:59;;;;;;;10.38;6.15;;;;;;;13.92;81.09;101682.66;10459814;28;20037;-77
2022/08/28 03:07:59;;;;;;;8.43;4.90;;;;;;;13.71;82.33;101682.56;10449617;28;20119;-78
2022/08/28 03:13:05;;;;;;;10.02;6.10;;;;;;;13.59;82.23;101690.75;10491816;28;20500;-77
2022/08/28 03:18:13;;;;;;;12.93;6.57;;;;;;;13.33;83.29;101685.06;10384934;28;20044;-77
2022/08/28 03:23:25;;;;;;;10.60;6.25;;;;;;;12.91;84.54;101690.88;10447710;28;20527;-77
2022/08/28 03:28:28;;;;;;;14.35;6.85;;;;;;;12.50;86.90;101687.91;10481449;28;20046;-77
2022/08/28 03:33:29;;;;;;;16.13;6.10;;;;;;;12.25;88.29;101689.22;10420412;28;20043;-77
2022/08/28 03:38:29;;;;;;;16.70;8.10;;;;;;;12.09;89.70;101699.69;10441478;28;20060;-77
2022/08/28 03:43:33;;;;;;;15.43;7.90;;;;;;;12.09;90.68;101690.13;10459739;28;20116;-77
2022/08/28 03:48:36;;;;;;;14.38;7.10;;;;;;;12.21;91.15;101708.22;10481370;28;20442;-77
2022/08/28 03:53:41;;;;;;;15.20;5.90;;;;;;;12.33;90.95;101708.91;10427701;28;20047;-78
2022/08/28 03:58:41;;;;;;;29.55;7.28;;;;;;;12.50;90.27;101713.25;10450276;28;20040;-78
2022/08/28 04:03:43;;;;;;;17.15;6.65;;;;;;;12.51;90.65;101700.19;10391525;28;20046;-75
2022/08/28 04:08:44;;;;;;;14.60;8.48;;;;;;;12.63;90.01;101713.97;10418048;28;20179;-76
2022/08/28 04:13:44;;;;;;;11.68;6.95;;;;;;;12.63;89.94;101711.34;10406829;28;20091;-76
2022/08/28 04:18:46;;;;;;;13.23;6.10;;;;;;;12.55;89.77;101717.03;10409872;28;20036;-77
2022/08/28 04:23:47;;;;;;;14.52;6.75;;;;;;;12.37;90.56;101716.94;10425420;28;20044;-77
2022/08/28 04:28:48;;;;;;;12.82;6.55;;;;;;;12.33;90.13;101729.91;10400008;28;20071;-77
2022/08/28 04:33:48;;;;;;;13.00;7.40;;;;;;;12.18;90.71;101734.31;10419712;28;20114;-77
2022/08/28 04:38:49;;;;;;;23.48;8.65;;;;;;;11.99;91.85;101727.13;10427948;28;20370;-77
2022/08/28 04:43:51;;;;;;;17.05;7.60;;;;;;;11.77;92.84;101733.78;10448259;28;20481;-78
2022/08/28 04:48:52;;;;;;;18.65;9.55;;;;;;;11.61;94.19;101737.25;10458569;28;20052;-77
2022/08/28 04:53:52;;;;;;;17.77;7.18;;;;;;;11.50;94.96;101740.97;10448092;28;20641;-78
2022/08/28 04:58:53;;;;;;;23.33;10.50;;;;;;;11.40;95.76;101752.66;10428581;28;20036;-78
2022/08/28 05:03:56;;;;;;;14.70;7.93;;;;;;;11.39;96.12;101754.34;10422177;28;20053;-77
2022/08/28 05:08:57;;;;;;;23.73;8.90;;;;;;;11.28;96.68;101760.69;10437620;28;20044;-76
2022/08/28 05:13:57;;;;;;;19.98;8.95;;;;;;;11.15;96.66;101759.94;10393537;28;20389;-76
2022/08/28 05:18:59;;;;;;;13.52;7.05;;;;;;;11.05;97.24;101765.44;10409108;28;20063;-77
2022/08/28 05:24:00;;;;;;;14.97;8.30;;;;;;;10.99;97.45;101765.09;10395158;28;20184;-77
2022/08/28 05:29:00;;;;;;;17.38;9.30;;;;;;;10.92;98.13;101762.91;10428909;28;20041;-77
2022/08/28 05:34:01;;;;;;;14.75;8.27;;;;;;;10.84;98.32;101771.19;10462958;28;20041;-77
2022/08/28 05:39:04;;;;;;;22.60;8.43;;;;;;;10.78;99.05;101768.19;10474816;28;20102;-79
2022/08/28 05:44:07;;;;;;;20.48;7.72;;;;;;;10.77;100.00;101778.59;10433446;28;20530;-77
2022/08/28 05:49:07;;;;;;;16.80;9.88;;;;;;;10.86;100.00;101789.63;10447985;28;20141;-78
2022/08/28 05:54:08;;;;;;;16.25;7.75;;;;;;;11.09;100.00;101785.78;10467932;28;20170;-79
2022/08/28 05:59:08;;;;;;;17.70;8.63;;;;;;;11.26;100.00;101788.50;10442970;28;20057;-79
2022/08/28 06:04:16;;;;;;;20.73;7.93;;;;;;;11.55;100.00;101797.19;10469198;28;20036;-79
2022/08/28 06:09:20;;;;;;;17.63;10.18;;;;;;;12.50;100.00;101794.66;10397104;28;20298;-78
2022/08/28 06:14:23;;;;;;;15.02;9.20;;;;;;;14.39;93.84;101789.28;10381090;28;20138;-80
2022/08/28 06:19:41;;;;;;;12.82;5.68;;;;;;;16.30;80.68;101783.31;10425564;28;20033;-79
2022/08/28 06:25:08;;;;;;;12.60;7.30;;;;;;;18.52;67.01;101782.03;10408505;28;20107;-78
2022/08/28 06:30:15;;;;;;;11.27;5.65;;;;;;;20.52;57.54;101792.44;10404822;28;20038;-79
2022/08/28 06:35:32;;;;;;;15.88;6.65;;;;;;;21.35;54.37;101795.81;10410158;28;20440;-79
2022/08/28 06:40:48;;;;;;;10.93;5.75;;;;;;;21.91;53.24;101791.44;10416324;28;20032;-78
2022/08/28 06:45:52;;;;;;;11.50;6.68;;;;;;;22.80;49.80;101787.31;10389741;28;20040;-79
2022/08/28 06:50:54;;;;;;;9.80;5.57;;;;;;;22.95;51.06;101791.91;10456971;28;20149;-80
2022/08/28 06:55:56;;;;;;;16.55;6.50;;;;;;;23.73;46.89;101786.44;10417891;28;20047;-79
2022/08/28 07:01:04;;;;;;;11.02;6.18;;;;;;;23.68;47.26;101795.31;10470168;28;20047;-79
2022/08/28 07:06:06;;;;;;;14.63;4.78;;;;;;;23.65;46.40;101797.97;10449647;28;20388;-80
2022/08/28 07:11:17;;;;;;;8.25;4.28;;;;;;;24.08;44.64;101810.75;10426142;28;20037;-79
2022/08/28 07:16:19;;;;;;;8.32;4.00;;;;;;;24.42;44.72;101808.28;10410008;28;20129;-79
2022/08/28 07:21:19;;;;;;;17.85;6.00;;;;;;;24.31;44.96;101805.56;10421483;28;20049;-81
2022/08/28 07:26:30;;;;;;;10.73;3.23;;;;;;;24.95;43.21;101811.19;10378720;28;20505;-80
2022/08/28 07:31:30;;;;;;;8.65;3.88;;;;;;;25.63;41.28;101809.53;10408277;28;20478;-78
2022/08/28 07:36:31;;;;;;;12.23;3.87;;;;;;;25.40;41.59;101820.19;10434885;28;20041;-78
2022/08/28 07:41:35;;;;;;;7.30;3.07;;;;;;;25.85;41.72;101813.97;10441629;28;20047;-78
2022/08/28 07:46:38;;;;;;;9.27;3.38;;;;;;;26.53;39.50;101813.84;10479391;28;20041;-78
2022/08/28 07:51:38;;;;;;;10.07;3.35;;;;;;;26.55;39.19;101820.09;10404781;28;20041;-78
2022/08/28 07:56:39;;;;;;;13.77;3.20;;;;;;;26.92;38.86;101814.56;10443387;28;20526;-77
2022/08/28 08:01:41;;;;;;;10.97;3.73;;;;;;;26.93;38.35;101821.72;10434279;28;20033;-78
2022/08/28 08:06:41;;;;;;;12.82;3.83;;;;;;;27.38;36.49;101820.53;10448371;28;20052;-80
2022/08/28 08:11:42;;;;;;;7.85;3.03;;;;;;;27.27;37.90;101821.53;10441275;28;20040;-79
2022/08/28 08:16:54;;;;;;;8.60;3.07;;;;;;;27.91;35.83;101825.50;10426433;28;20260;-78
2022/08/28 08:21:57;;;;;;;8.73;3.05;;;;;;;26.72;37.29;101828.09;10436030;28;20041;-77
2022/08/28 08:26:59;;;;;;;8.68;3.70;;;;;;;25.45;39.10;101837.22;10449421;28;20049;-79
2022/08/28 08:32:04;;;;;;;11.10;3.30;;;;;;;27.24;36.15;101826.91;10486002;28;20109;-78
2022/08/28 08:37:04;;;;;;;7.72;2.42;;;;;;;28.60;34.33;101828.38;10429344;28;20045;-79
2022/08/28 08:42:09;;;;;;;8.35;2.97;;;;;;;29.18;32.73;101831.22;10429754;28;20029;-78
2022/08/28 08:47:29;;;;;;;7.32;3.10;;;;;;;29.00;32.68;101833.25;10409443;28;20064;-79
2022/08/28 08:52:37;;;;;;;5.93;2.63;;;;;;;29.61;32.42;101833.25;10462954;28;20040;-79
2022/08/28 08:57:38;;;;;;;8.45;4.55;;;;;;;29.68;31.29;101826.81;10468214;28;20035;-78
2022/08/28 09:02:58;;;;;;;6.10;2.47;;;;;;;29.42;31.36;101828.16;10468857;28;20043;-79
2022/08/28 09:08:01;;;;;;;9.18;3.50;;;;;;;29.57;31.28;101836.91;10455377;28;20624;-79
2022/08/28 09:13:15;;;;;;;9.98;2.85;;;;;;;29.49;31.11;101834.31;10423114;28;20033;-80
2022/08/28 09:18:20;;;;;;;7.82;2.50;;;;;;;28.75;31.44;101832.66;10471549;28;20041;-80
2022/08/28 09:23:21;;;;;;;8.13;2.63;;;;;;;26.65;35.01;101834.38;10477655;28;20053;-80
2022/08/28 09:28:25;;;;;;;7.95;2.80;;;;;;;26.88;36.19;101836.09;10463621;28;20037;-79
2022/08/28 09:33:32;;;;;;;9.57;3.30;;;;;;;26.17;36.35;101840.78;10457236;28;20091;-79
2022/08/28 09:38:32;;;;;;;6.78;2.95;;;;;;;26.10;36.67;101842.53;10458945;28;20043;-79
2022/08/28 09:43:34;;;;;;;6.00;2.30;;;;;;;28.50;33.31;101832.97;10440975;28;20504;-79
2022/08/28 09:48:36;;;;;;;8.68;2.85;;;;;;;29.10;30.94;101837.59;10449201;28;20041;-79
2022/08/28 09:54:01;;;;;;;7.18;2.28;;;;;;;29.68;29.90;101839.41;10455569;28;20048;-80
2022/08/28 09:59:05;;;;;;;6.38;2.20;;;;;;;29.63;30.88;101838.59;10456508;28;20045;-80
2022/08/28 10:04:18;;;;;;;5.93;2.25;;;;;;;30.37;30.47;101836.38;10441766;28;20057;-78
2022/08/28 10:10:00;;;;;;;9.68;2.25;;;;;;;30.96;28.37;101827.06;10445295;28;20388;-79
2022/08/28 10:15:13;;;;;;;8.10;2.83;;;;;;;30.87;27.98;101834.44;10438620;28;20045;-81
2022/08/28 10:20:35;;;;;;;6.22;2.60;;;;;;;31.47;30.45;101840.28;10460609;28;20045;-81
2022/08/28 10:26:02;;;;;;;6.40;2.47;;;;;;;29.65;30.81;101837.66;10441541;28;20044;-80
2022/08/28 10:31:25;;;;;;;5.95;2.35;;;;;;;27.87;33.34;101830.03;10434220;28;20068;-81
2022/08/28 10:36:28;;;;;;;12.85;4.10;;;;;;;29.78;32.08;101832.06;10434407;28;20041;-81
2022/08/28 10:41:53;;;;;;;4.80;1.95;;;;;;;30.55;29.36;101827.00;10397946;28;21463;-81
2022/08/28 10:46:54;;;;;;;7.55;3.38;;;;;;;30.44;29.23;101819.13;10417339;28;20042;-80
2022/08/28 10:52:02;;;;;;;;;;;;;;;28.86;32.67;101834.34;10422889;28;20041;-81
2022/08/28 10:57:20;;;;;;;6.82;2.70;;;;;;;30.39;28.34;101827.31;10433773;28;19956;-83
2022/08/28 11:02:22;;;;;;;5.00;2.03;;;;;;;31.16;28.33;101837.38;10402119;28;20045;-81
2022/08/28 11:07:44;;;;;;;19.35;3.67;;;;;;;31.66;26.78;101836.22;10418916;28;20057;-83
2022/08/28 11:12:44;;;;;;;6.22;2.08;;;;;;;31.76;26.85;101824.25;10383257;28;20573;-82
2022/08/28 11:17:45;;;;;;;7.57;2.13;;;;;;;31.19;26.77;101834.66;10382556;28;20037;-81
2022/08/28 11:22:52;;;;;;;7.53;2.00;;;;;;;30.82;27.67;101832.75;10385582;28;20046;-82
2022/08/28 11:28:18;;;;;;;5.90;2.53;;;;;;;31.40;26.66;101844.06;10432791;28;20040;-81
2022/08/28 11:33:32;;;;;;;5.22;1.75;;;;;;;31.37;27.00;101838.72;10450167;28;20079;-80
2022/08/28 11:38:56;;;;;;;4.88;1.63;;;;;;;31.62;27.64;101830.00;10438546;28;20147;-81
2022/08/28 11:44:09;;;;;;;5.85;1.80;;;;;;;30.99;26.30;101825.16;10437506;28;20489;-80
2022/08/28 11:49:25;;;;;;;6.13;2.60;;;;;;;31.29;26.26;101824.50;10438726;28;20029;-82
2022/08/28 11:54:47;;;;;;;5.97;1.75;;;;;;;31.56;27.41;101832.88;10448635;28;20048;-80
2022/08/28 12:00:07;;;;;;;4.60;2.42;;;;;;;31.72;25.61;101822.53;10463572;28;20554;-80
2022/08/28 12:05:10;;;;;;;8.02;2.55;;;;;;;31.53;26.33;101822.13;10449520;28;20037;-79
2022/08/28 12:10:23;;;;;;;5.32;1.85;;;;;;;31.29;28.08;101811.88;10421325;28;20049;-79
2022/08/28 12:15:28;;;;;;;6.57;2.17;;;;;;;32.08;25.63;101815.25;10446115;28;20045;-81
2022/08/28 12:20:50;;;;;;;4.35;1.55;;;;;;;31.19;26.55;101813.91;10469103;28;20075;-81
2022/08/28 12:26:15;;;;;;;4.40;1.42;;;;;;;31.69;26.50;101811.78;10467155;28;20049;-81
2022/08/28 12:32:10;;;;;;;8.20;2.38;;;;;;;31.92;26.63;101824.75;10479538;28;20067;-80
2022/08/28 12:36:56;;;;;;;7.05;1.95;;;;;;;30.86;25.78;101805.66;10431396;28;20069;-80
2022/08/28 12:41:57;;;;;;;10.77;2.15;;;;;;;31.46;27.47;101802.44;10403150;28;20536;-80
2022/08/28 12:46:58;;;;;;;4.22;1.55;;;;;;;31.70;25.69;101798.22;10450373;28;20083;-80
2022/08/28 12:52:09;;;;;;;8.67;2.13;;;;;;;31.40;25.74;101800.78;10468482;28;20395;-80
2022/08/28 12:57:11;;;;;;;4.60;2.17;;;;;;;31.71;25.72;101797.28;10473581;28;20041;-80
2022/08/28 13:02:27;;;;;;;7.43;2.35;;;;;;;28.57;29.73;101808.66;10442770;28;20121;-81
2022/08/28 13:07:39;;;;;;;8.02;2.50;;;;;;;28.75;30.53;101795.88;10430006;28;20124;-81
2022/08/28 13:12:45;;;;;;;3.90;2.00;;;;;;;30.36;28.69;101792.28;10423269;28;20883;-81
2022/08/28 13:17:50;;;;;;;5.30;1.30;;;;;;;31.22;25.51;101787.75;10475832;28;20119;-81
2022/08/28 13:22:51;;;;;;;3.60;1.63;;;;;;;30.98;26.67;101788.25;10468642;28;20040;-81
2022/08/28 13:28:11;;;;;;;4.60;1.33;;;;;;;31.33;26.22;101785.66;10447613;28;20072;-79
2022/08/28 13:33:14;;;;;;;4.47;1.98;;;;;;;32.00;25.89;101773.09;10458701;28;20041;-78
2022/08/28 13:38:16;;;;;;;3.13;1.38;;;;;;;31.84;25.53;101768.09;10456328;28;20045;-77
2022/08/28 13:43:17;;;;;;;6.63;2.38;;;;;;;30.85;25.79;101773.25;10483508;28;20033;-78
2022/08/28 13:48:22;;;;;;;6.10;1.90;;;;;;;30.90;25.44;101774.03;10420016;28;20049;-78
2022/08/28 13:53:23;;;;;;;4.30;1.45;;;;;;;29.66;27.88;101782.81;10406958;28;20057;-79
2022/08/28 13:58:27;;;;;;;5.20;1.42;;;;;;;27.55;30.85;101775.63;10413777;28;20051;-80
2022/08/28 14:03:40;;;;;;;3.83;1.85;;;;;;;29.15;27.72;101765.66;10424245;28;20037;-79
2022/08/28 14:08:42;;;;;;;4.30;1.27;;;;;;;30.05;26.59;101767.75;10465968;28;20139;-79
2022/08/28 14:13:44;;;;;;;7.15;1.73;;;;;;;29.30;26.91;101763.63;10440669;28;20435;-80
2022/08/28 14:18:44;;;;;;;3.67;1.88;;;;;;;30.45;26.33;101759.69;10450498;28;20045;-79
2022/08/28 14:23:45;;;;;;;5.43;1.50;;;;;;;31.15;24.25;101762.63;10459602;28;20063;-80
2022/08/28 14:28:48;;;;;;;3.92;1.55;;;;;;;30.44;24.96;101749.81;10472224;28;20040;-78
2022/08/28 14:33:53;;;;;;;2.83;1.17;;;;;;;30.58;25.94;101754.00;10455851;28;20489;-78
2022/08/28 14:39:02;;;;;;;5.22;1.55;;;;;;;30.50;26.85;101747.88;10435386;28;20427;-78
2022/08/28 14:44:07;;;;;;;5.88;1.23;;;;;;;31.36;25.42;101742.31;10413737;28;20045;-77
2022/08/28 14:49:12;;;;;;;6.70;2.95;;;;;;;31.82;24.98;101739.31;10400991;28;20030;-78
2022/08/28 14:54:16;;;;;;;3.33;1.20;;;;;;;30.67;25.18;101734.94;10364709;28;20129;-78
2022/08/28 14:59:22;;;;;;;3.42;1.65;;;;;;;30.11;26.58;101741.50;10395207;28;20068;-79
2022/08/28 15:04:24;;;;;;;5.50;1.80;;;;;;;29.35;27.93;101742.88;10382078;28;20084;-77
2022/08/28 15:09:25;;;;;;;5.07;1.27;;;;;;;28.07;29.33;101730.28;10425191;28;20029;-80
2022/08/28 15:14:26;;;;;;;2.63;1.20;;;;;;;28.63;28.58;101740.34;10440665;28;20041;-79
2022/08/28 15:19:28;;;;;;;7.13;1.85;;;;;;;28.55;28.35;101729.72;10428579;28;20041;-79
2022/08/28 15:24:30;;;;;;;3.63;1.60;;;;;;;28.29;28.80;101735.44;10423354;28;20025;-78
2022/08/28 15:29:30;;;;;;;4.00;1.20;;;;;;;26.53;32.19;101739.59;10409243;28;20034;-78
2022/08/28 15:34:31;;;;;;;5.40;1.50;;;;;;;26.95;30.62;101723.25;10421629;28;20040;-78
2022/08/28 15:44:51;;;;;;;7.15;1.95;;;;;;;26.36;32.05;101728.06;10382204;28;20038;-77
2022/08/28 15:49:54;;;;;;;7.27;2.83;;;;;;;26.03;33.41;101724.56;10433935;28;20497;-77
2022/08/28 15:54:55;;;;;;;7.90;2.00;;;;;;;25.44;33.43;101727.34;10442932;28;20037;-77
2022/08/28 15:59:55;;;;;;;3.80;2.20;;;;;;;24.14;36.02;101725.22;10405287;28;20045;-77
2022/08/28 16:04:57;;;;;;;3.83;1.47;;;;;;;23.41;37.07;101730.97;10402088;28;20041;-77
2022/08/28 16:09:57;;;;;;;6.70;1.67;;;;;;;23.04;37.70;101727.97;10430236;28;20041;-76
2022/08/28 16:14:57;;;;;;;3.13;1.20;;;;;;;22.82;38.53;101740.19;10444195;28;20116;-75
2022/08/28 16:19:58;;;;;;;3.97;1.77;;;;;;;22.52;38.89;101731.84;10444678;28;20033;-77
2022/08/28 16:24:59;;;;;;;4.28;1.42;;;;;;;22.19;39.25;101729.66;10443897;28;20504;-77
2022/08/28 16:29:59;;;;;;;7.97;2.70;;;;;;;21.74;40.07;101737.91;10480641;28;20060;-76
2022/08/28 16:35:01;;;;;;;5.18;1.90;;;;;;;21.64;40.44;101733.31;10470569;28;20116;-77
2022/08/28 16:40:02;;;;;;;;;;;;;;;21.59;40.17;101741.19;10434604;28;20426;-77
2022/08/28 16:45:04;;;;;;;3.85;1.48;;;;;;;21.52;40.66;101742.88;10448740;28;19938;-77
2022/08/28 16:50:07;;;;;;;5.25;1.58;;;;;;;21.41;40.91;101741.78;10437542;28;20388;-78
2022/08/28 16:55:08;;;;;;;4.88;1.90;;;;;;;21.10;42.90;101739.47;10444503;28;20469;-78
2022/08/28 17:00:13;;;;;;;6.82;1.80;;;;;;;21.12;41.15;101740.41;10442967;28;20037;-79
2022/08/28 17:05:14;;;;;;;4.90;1.38;;;;;;;21.11;41.30;101740.41;10426995;28;20040;-78
2022/08/28 17:10:16;;;;;;;4.27;1.53;;;;;;;21.02;42.25;101733.13;10439494;28;20044;-79
2022/08/28 17:15:16;;;;;;;;;;;;;;;20.92;42.38;101741.81;10466975;28;20045;-78
2022/08/28 17:25:36;;;;;;;5.55;2.55;;;;;;;20.14;44.67;101739.34;10429749;28;20033;-79
2022/08/28 17:30:37;;;;;;;9.75;3.65;;;;;;;19.74;45.38;101737.53;10471081;28;20416;-78
2022/08/28 17:35:37;;;;;;;2.60;1.60;;;;;;;19.64;46.12;101736.41;10483501;28;20090;-78
2022/08/28 17:40:38;;;;;;;3.65;1.55;;;;;;;19.50;46.65;101732.50;10470018;28;20481;-77
2022/08/28 17:45:38;;;;;;;4.13;1.67;;;;;;;19.35;46.61;101739.22;10442415;28;20055;-77
2022/08/28 17:50:39;;;;;;;9.50;2.13;;;;;;;19.28;46.91;101745.25;10468636;28;20040;-78
2022/08/28 17:55:39;;;;;;;4.15;1.75;;;;;;;19.21;46.35;101748.59;10483405;28;20047;-77
2022/08/28 18:00:41;;;;;;;7.10;1.88;;;;;;;18.95;47.68;101753.19;10457532;28;20047;-77
2022/08/28 18:05:41;;;;;;;8.27;3.80;;;;;;;18.51;49.10;101746.69;10425677;28;20037;-77
2022/08/28 18:10:42;;;;;;;4.78;2.30;;;;;;;18.27;49.17;101746.84;10474471;28;20531;-77
2022/08/28 18:15:42;;;;;;;4.63;1.52;;;;;;;18.25;49.54;101760.06;10465448;28;20488;-76
2022/08/28 18:20:43;;;;;;;3.95;1.80;;;;;;;17.95;50.62;101773.19;10474317;28;20501;-77
2022/08/28 18:25:44;;;;;;;9.70;2.38;;;;;;;17.65;51.90;101771.38;10456774;28;20370;-77
2022/08/28 18:30:45;;;;;;;3.42;1.70;;;;;;;17.23;53.29;101780.56;10481180;28;20511;-76
2022/08/28 18:35:46;;;;;;;4.30;1.85;;;;;;;16.83;54.89;101780.00;10463696;28;20040;-77
2022/08/28 18:40:46;;;;;;;2.30;1.63;;;;;;;16.33;57.31;101793.13;10440306;28;20086;-77
2022/08/28 18:45:47;;;;;;;5.20;1.85;;;;;;;15.79;59.07;101790.09;10441667;28;20112;-77
2022/08/28 18:50:48;;;;;;;2.30;1.60;;;;;;;15.39;60.83;101798.97;10475770;28;20112;-77
2022/08/28 18:55:50;;;;;;;13.38;4.15;;;;;;;15.10;62.27;101799.53;10468064;28;20041;-77
2022/08/28 19:00:51;;;;;;;3.45;2.45;;;;;;;14.93;63.75;101814.59;10422496;28;20041;-77
2022/08/28 19:05:53;;;;;;;5.80;2.38;;;;;;;14.73;64.79;101811.06;10441057;28;20029;-77
2022/08/28 19:10:54;;;;;;;3.67;1.45;;;;;;;14.48;67.38;101824.78;10439000;28;20041;-77
2022/08/28 19:15:54;;;;;;;2.97;1.88;;;;;;;14.21;69.08;101831.47;10440303;28;20072;-77
2022/08/28 19:21:03;;;;;;;5.15;2.75;;;;;;;13.95;70.42;101840.69;10437387;28;20036;-77
2022/08/28 19:26:05;;;;;;;5.40;2.45;;;;;;;13.83;70.69;101838.38;10483651;28;20128;-77
2022/08/28 19:31:06;;;;;;;7.20;2.40;;;;;;;13.64;71.43;101841.78;10442225;28;20400;-77
2022/08/28 19:36:07;;;;;;;6.28;1.88;;;;;;;13.36;71.92;101833.38;10490882;28;20131;-78
2022/08/28 19:41:08;;;;;;;6.07;2.40;;;;;;;13.21;72.88;101841.34;10477231;28;20415;-76
2022/08/28 19:46:09;;;;;;;7.88;2.60;;;;;;;13.11;73.16;101839.06;10446270;28;20029;-77
2022/08/28 19:51:10;;;;;;;6.05;2.70;;;;;;;13.04;72.93;101851.00;10420114;28;20061;-77
2022/08/28 19:56:12;;;;;;;5.07;1.80;;;;;;;12.87;73.47;101851.81;10387783;28;20041;-77
2022/08/28 20:01:12;;;;;;;3.47;1.83;;;;;;;12.69;74.75;101856.94;10388416;28;20409;-76
2022/08/28 20:06:13;;;;;;;6.20;2.10;;;;;;;12.61;77.14;101867.94;10429539;28;20141;-77
2022/08/28 20:11:22;;;;;;;5.78;2.58;;;;;;;12.46;78.02;101864.47;10482259;28;20526;-77
2022/08/28 20:16:23;;;;;;;8.00;2.67;;;;;;;12.41;79.25;101873.81;10443198;28;20090;-76
2022/08/28 20:21:23;;;;;;;4.70;2.97;;;;;;;12.29;79.58;101872.28;10428778;28;20040;-76
2022/08/28 20:26:24;;;;;;;9.70;1.92;;;;;;;12.21;79.55;101870.06;10447098;28;20065;-76
2022/08/28 20:31:24;;;;;;;5.30;2.90;;;;;;;12.16;79.08;101880.28;10443833;28;20144;-76
2022/08/28 20:36:25;;;;;;;7.05;2.22;;;;;;;12.02;79.67;101890.00;10485877;28;20032;-76
2022/08/28 20:41:26;;;;;;;4.80;2.40;;;;;;;11.98;80.17;101893.22;10457509;28;20037;-76
2022/08/28 20:46:29;;;;;;;6.15;2.28;;;;;;;11.92;81.98;101899.00;10429704;28;20120;-76
2022/08/28 20:56:49;;;;;;;5.93;1.70;;;;;;;11.80;83.35;101908.78;10469786;28;20041;-76
2022/08/28 21:01:50;;;;;;;5.85;2.38;;;;;;;11.77;82.94;101929.56;10486282;28;20512;-76
2022/08/28 21:06:50;;;;;;;5.28;2.28;;;;;;;11.63;83.21;101915.66;10482511;28;20047;-76
2022/08/28 21:11:51;;;;;;;4.35;2.00;;;;;;;11.61;83.35;101926.03;10485382;28;20029;-76
2022/08/28 21:16:52;;;;;;;5.28;3.17;;;;;;;11.65;83.41;101917.53;10445233;28;20170;-76
2022/08/28 21:21:52;;;;;;;5.32;2.45;;;;;;;11.65;84.28;101924.50;10423348;28;20067;-76
2022/08/28 21:26:53;;;;;;;8.63;2.60;;;;;;;11.65;83.73;101921.88;10442149;28;20033;-76
2022/08/28 21:31:53;;;;;;;8.60;2.33;;;;;;;11.66;83.15;101924.59;10428138;28;20112;-76
2022/08/28 21:36:54;;;;;;;6.32;2.15;;;;;;;11.68;82.20;101935.19;10402862;28;20047;-75
2022/08/28 21:41:54;;;;;;;8.95;2.00;;;;;;;11.61;82.31;101926.03;10415847;28;20408;-75
2022/08/28 21:46:55;;;;;;;5.63;2.00;;;;;;;11.41;82.59;101930.06;10441912;28;20128;-76
2022/08/28 21:51:57;;;;;;;5.50;2.50;;;;;;;11.31;83.95;101931.22;10464398;28;20129;-76
2022/08/28 21:56:58;;;;;;;6.72;2.13;;;;;;;11.26;85.46;101930.03;10475405;28;20047;-76
2022/08/28 22:01:58;;;;;;;5.97;2.10;;;;;;;11.19;86.51;101927.81;10456915;28;20067;-76
2022/08/28 22:06:59;;;;;;;5.32;2.45;;;;;;;11.14;87.15;101935.41;10484190;28;20043;-76
2022/08/28 22:12:00;;;;;;;4.55;1.85;;;;;;;11.05;87.84;101940.97;10470213;28;20041;-76
2022/08/28 22:17:01;;;;;;;4.17;2.43;;;;;;;10.95;87.96;101944.75;10441960;28;20037;-76
2022/08/28 22:27:20;;;;;;;9.40;2.50;;;;;;;10.91;88.03;101950.59;10441992;28;20183;-76
2022/08/28 22:32:24;;;;;;;5.28;2.20;;;;;;;10.81;87.98;101945.56;10475979;28;20041;-76
2022/08/28 22:37:24;;;;;;;4.60;2.20;;;;;;;10.85;88.76;101938.00;10482278;28;20116;-76
2022/08/28 22:42:25;;;;;;;7.22;3.10;;;;;;;10.86;89.23;101949.41;10445240;28;20029;-76
2022/08/28 22:47:25;;;;;;;3.75;1.90;;;;;;;10.96;88.75;101948.25;10455588;28;20544;-76
2022/08/28 22:52:26;;;;;;;4.15;1.88;;;;;;;10.81;88.68;101941.22;10461405;28;20064;-76
2022/08/28 22:57:26;;;;;;;7.15;2.97;;;;;;;10.64;88.66;101945.41;10440298;28;20107;-76
2022/08/28 23:02:27;;;;;;;2.50;1.63;;;;;;;10.50;89.26;101947.09;10461911;28;20118;-75
2022/08/28 23:07:28;;;;;;;6.53;2.85;;;;;;;10.39;89.71;101942.84;10442241;28;20652;-75
2022/08/28 23:12:28;;;;;;;6.40;2.97;;;;;;;10.29;90.43;101941.34;10458688;28;20131;-75
2022/08/28 23:17:29;;;;;;;8.32;3.05;;;;;;;10.28;91.14;101945.66;10480826;28;20143;-75
2022/08/28 23:22:30;;;;;;;6.45;2.70;;;;;;;10.30;92.41;101951.00;10463608;28;20438;-75
2022/08/28 23:27:30;;;;;;;6.38;2.38;;;;;;;10.21;92.85;101951.28;10439001;28;20036;-75
2022/08/28 23:32:31;;;;;;;11.80;3.03;;;;;;;10.14;92.91;101956.91;10456639;28;20060;-75
2022/08/28 23:37:32;;;;;;;7.80;2.78;;;;;;;10.06;93.77;101939.81;10469589;28;20108;-75